Observations
| Time | Sensor | AQI | SAQ | Temp °C | Hum % | Pres Pa | CO μg/m³ | H₂S μg/m³ | NO μg/m³ | NO₂ μg/m³ | O₃ μg/m³ | SO₂ μg/m³ | CO₂e PPM | VOC PPM | PM1 μg/m³ | PM2.5 μg/m³ | PM4 μg/m³ | PM10 μg/m³ | TPS µm |
|---|---|---|---|---|---|---|---|---|---|---|---|---|---|---|---|---|---|---|---|
| Wednesday 12 August 2026 | |||||||||||||||||||
| 18:57 | Trim Market St | 3 | 32.4 | 35 | 66,374 | 0 | 3.98 | 0.27 | 13.8 | 86.78 | 0 | 2.14 | 5.22 | 6.69 | |||||
| 18:56 | Trim Patrick St | 4 | 34.9 | 33 | 69,632 | 0 | 38.74 | 0.14 | 16.84 | 116.55 | 27.38 | 3.71 | 11.5 | 12.65 | |||||
| 18:55 | Trim Patrick St | 4 | 35.1 | 32 | 69,648 | 0 | 29.76 | 0.18 | 14.24 | 128.02 | 26.92 | 4.57 | 11.53 | 12.68 | |||||
| 18:54 | Trim Patrick St | 3 | 35.2 | 32 | 69,642 | 0 | 25.52 | 0.2 | 12.54 | 101.9 | 26.39 | 5.43 | 11.55 | 12.7 | |||||
| 18:53 | Trim Patrick St | 3 | 35.4 | 32 | 69,663 | 0 | 24.77 | 0.23 | 13.26 | 84.2 | 25.7 | 5.43 | 11.58 | 12.74 | |||||
| 18:52 | Trim Patrick St | 3 | 35.5 | 32 | 69,658 | 0 | 39.81 | 0.21 | 13.24 | 121.71 | 28.37 | 4.57 | 10.77 | 11.85 | |||||
| 18:51 | Trim Patrick St | 3 | 35.7 | 31 | 69,652 | 0 | 33.98 | 0.25 | 26.92 | 105.86 | 27.06 | 5.43 | 11.61 | 12.77 | |||||
| 18:50 | Trim Patrick St | 3 | 35.9 | 31 | 69,673 | 0 | 21.86 | 0.26 | 12.72 | 105.69 | 27.03 | 3.71 | 10 | 11 | |||||
| 18:49 | Trim Patrick St | 3 | 36 | 31 | 69,697 | 0 | 22.85 | 0.25 | 13.08 | 103.19 | 26.84 | 4.57 | 10.81 | 11.89 | |||||
| 18:49 | Trim Market St | 3 | 32.9 | 35 | 66,453 | 0 | 4.69 | 0.23 | 14.52 | 87.42 | 0 | 1.43 | 5.26 | 5.78 | |||||
| 18:48 | Trim Patrick St | 3 | 36.2 | 31 | 69,697 | 0 | 25.58 | 0.23 | 12.77 | 108.82 | 27.64 | 4.57 | 10.83 | 11.92 | |||||
| 18:47 | Trim Market St | 3 | 33 | 34 | 66,443 | 0 | 4.71 | 0.23 | 15.14 | 92.51 | 0 | 2.14 | 5.8 | 5.85 | |||||
| 18:46 | Trim Patrick St | 3 | 36.5 | 31 | 69,736 | 0 | 26.5 | 0.18 | 12.79 | 118.5 | 28.08 | 4.57 | 11.66 | 12.82 | |||||
| 18:46 | Trim Market St | 3 | 33 | 34 | 66,437 | 0 | 5.25 | 0.23 | 15.89 | 85.37 | 0 | 3.56 | 6.88 | 9.2 | |||||
| 18:44 | Trim Patrick St | 3 | 36.9 | 30 | 69,764 | 0 | 21.83 | 0.13 | 13.64 | 130.41 | 27.54 | 3.71 | 10.1 | 11.11 | |||||
| 18:41 | Trim Market St | 3 | 33.2 | 34 | 66,461 | 0 | 3.69 | 0.2 | 14.77 | 90.4 | 0 | 1.43 | 4.76 | 5.23 | |||||
| 18:41 | Trim Patrick St | 3 | 37.6 | 29 | 69,799 | 0 | 6.56 | 0 | 13.04 | 125.99 | 27.04 | 3.71 | 9.35 | 10.28 | |||||
| 18:40 | Trim Market St | 3 | 33.3 | 34 | 66,455 | 0 | 3.23 | 0.19 | 13.85 | 83.86 | 0 | 2.14 | 4.76 | 6.68 | |||||
| 18:40 | Trim Patrick St | 3 | 37.7 | 29 | 69,795 | 0 | 5.68 | 0 | 12.94 | 118.23 | 28.86 | 3.71 | 10.98 | 12.07 | |||||
| 18:39 | Trim Market St | 3 | 33.4 | 34 | 66,480 | 0 | 2.92 | 0.18 | 14.03 | 91.62 | 0 | 2.14 | 5.3 | 5.83 | |||||